UP1225 UHPP-ULLI
Flight info
| Callsign | UP1225 |
|---|---|
| Flight time | N/A |
| Altitude | 34000 |
| Route | BAKEN A812 IDKES/K0909F360 A812 OLEGA T411 LABAR M131 NRM L168 RIGNI M58 KUPUK/K0902F380 M58 ARGIP T821 ROGID M856 GIKUR T458 BEPOL |
| Aircraft | B772/H-SDE2E3FGHIJ5LORVWXY/LB1D1 |
Departure
| Time | 2026-05-07 11:02 |
|---|---|
| Airport | Yelizovo Airport (UHPP) |
Arrival
| Time | N/A |
|---|---|
| Airport | Pulkovo Airport (ULLI) |
| Time | Latitude | Longitude | Altitude | Speed | Heading |
|---|---|---|---|---|---|
| 2026-05-07 09:47 | 53.16942 | 158.42677 | 137 ft | 0 kts | 241° |
| 2026-05-07 10:45 | 53.16943 | 158.42681 | 148 ft | 3 kts | 241° |
| 2026-05-07 10:45 | 53.16957 | 158.42718 | 159 ft | 4 kts | 236° |
| 2026-05-07 10:46 | 53.16969 | 158.42751 | 159 ft | 4 kts | 237° |
| 2026-05-07 10:46 | 53.16986 | 158.42783 | 165 ft | 4 kts | 207° |
| 2026-05-07 10:46 | 53.17010 | 158.42791 | 165 ft | 4 kts | 161° |
| 2026-05-07 10:46 | 53.17033 | 158.42770 | 165 ft | 4 kts | 141° |
| 2026-05-07 10:47 | 53.17053 | 158.42743 | 165 ft | 2 kts | 148° |
| 2026-05-07 10:47 | 53.17054 | 158.42742 | 165 ft | 0 kts | 149° |
| 2026-05-07 10:50 | 53.17052 | 158.42744 | 165 ft | 1 kts | 148° |
| 2026-05-07 10:50 | 53.17049 | 158.42749 | 165 ft | 1 kts | 141° |
| 2026-05-07 10:50 | 53.17041 | 158.42784 | 165 ft | 6 kts | 102° |
| 2026-05-07 10:50 | 53.17051 | 158.42859 | 165 ft | 7 kts | 66° |
| 2026-05-07 10:51 | 53.17072 | 158.42929 | 165 ft | 7 kts | 60° |
| 2026-05-07 10:51 | 53.17097 | 158.42996 | 165 ft | 7 kts | 58° |
| 2026-05-07 10:51 | 53.17122 | 158.43066 | 165 ft | 8 kts | 60° |
| 2026-05-07 10:51 | 53.17158 | 158.43168 | 165 ft | 13 kts | 59° |
| 2026-05-07 10:52 | 53.17204 | 158.43299 | 165 ft | 13 kts | 59° |
| 2026-05-07 10:52 | 53.17251 | 158.43430 | 170 ft | 13 kts | 59° |
| 2026-05-07 10:52 | 53.17297 | 158.43560 | 171 ft | 13 kts | 59° |
| 2026-05-07 10:52 | 53.17362 | 158.43745 | 167 ft | 22 kts | 60° |
| 2026-05-07 10:53 | 53.17438 | 158.43963 | 149 ft | 22 kts | 59° |
| 2026-05-07 10:53 | 53.17489 | 158.44147 | 150 ft | 10 kts | 67° |
| 2026-05-07 10:53 | 53.17506 | 158.44214 | 150 ft | 0 kts | 67° |
| 2026-05-07 10:54 | 53.17507 | 158.44215 | 150 ft | 0 kts | 67° |
| 2026-05-07 10:54 | 53.17509 | 158.44226 | 150 ft | 3 kts | 67° |
| 2026-05-07 10:54 | 53.17521 | 158.44282 | 151 ft | 7 kts | 83° |
| 2026-05-07 10:54 | 53.17487 | 158.44363 | 151 ft | 11 kts | 146° |
| 2026-05-07 10:55 | 53.17405 | 158.44428 | 151 ft | 15 kts | 157° |
| 2026-05-07 10:55 | 53.17292 | 158.44504 | 151 ft | 20 kts | 158° |
| 2026-05-07 10:55 | 53.17153 | 158.44600 | 151 ft | 23 kts | 157° |
| 2026-05-07 10:55 | 53.17002 | 158.44705 | 151 ft | 23 kts | 157° |
| 2026-05-07 10:56 | 53.16851 | 158.44810 | 151 ft | 23 kts | 157° |
| 2026-05-07 10:56 | 53.16701 | 158.44916 | 151 ft | 23 kts | 157° |
| 2026-05-07 10:56 | 53.16552 | 158.45019 | 151 ft | 23 kts | 157° |
| 2026-05-07 10:56 | 53.16401 | 158.45124 | 151 ft | 23 kts | 157° |
| 2026-05-07 10:57 | 53.16251 | 158.45230 | 151 ft | 23 kts | 157° |
| 2026-05-07 10:57 | 53.16133 | 158.45311 | 151 ft | 14 kts | 158° |
| 2026-05-07 10:57 | 53.16077 | 158.45369 | 151 ft | 8 kts | 119° |
| 2026-05-07 10:57 | 53.16079 | 158.45463 | 152 ft | 8 kts | 74° |
| 2026-05-07 10:58 | 53.16098 | 158.45553 | 152 ft | 8 kts | 76° |
| 2026-05-07 10:58 | 53.16074 | 158.45636 | 152 ft | 8 kts | 138° |
| 2026-05-07 10:58 | 53.16023 | 158.45683 | 153 ft | 8 kts | 155° |
| 2026-05-07 10:58 | 53.15961 | 158.45728 | 154 ft | 12 kts | 157° |
| 2026-05-07 10:59 | 53.15872 | 158.45791 | 154 ft | 14 kts | 157° |
| 2026-05-07 10:59 | 53.15781 | 158.45855 | 154 ft | 14 kts | 157° |
| 2026-05-07 10:59 | 53.15687 | 158.45884 | 153 ft | 14 kts | 189° |
| 2026-05-07 10:59 | 53.15600 | 158.45875 | 152 ft | 8 kts | 172° |
| 2026-05-07 11:00 | 53.15557 | 158.45935 | 152 ft | 8 kts | 125° |
| 2026-05-07 11:00 | 53.15584 | 158.46000 | 152 ft | 8 kts | 1° |
| 2026-05-07 11:00 | 53.15632 | 158.45959 | 152 ft | 0 kts | 334° |
| 2026-05-07 11:01 | 53.15647 | 158.45947 | 152 ft | 12 kts | 335° |
| 2026-05-07 11:01 | 53.15854 | 158.45799 | 154 ft | 64 kts | 338° |
| 2026-05-07 11:01 | 53.16507 | 158.45352 | 150 ft | 138 kts | 338° |
| 2026-05-07 11:01 | 53.17599 | 158.44602 | 208 ft | 196 kts | 338° |
| 2026-05-07 11:02 | 53.18910 | 158.43708 | 859 ft | 209 kts | 338° |
| 2026-05-07 11:02 | 53.20288 | 158.42759 | 1835 ft | 213 kts | 336° |
| 2026-05-07 11:02 | 53.21645 | 158.41820 | 2948 ft | 212 kts | 333° |
| 2026-05-07 11:02 | 53.23020 | 158.40835 | 3522 ft | 215 kts | 333° |
| 2026-05-07 11:03 | 53.24397 | 158.39845 | 4055 ft | 223 kts | 333° |
| 2026-05-07 11:03 | 53.25850 | 158.38807 | 4526 ft | 234 kts | 332° |
| 2026-05-07 11:03 | 53.27405 | 158.37698 | 4789 ft | 253 kts | 333° |
| 2026-05-07 11:03 | 53.29059 | 158.36533 | 5306 ft | 261 kts | 334° |
| 2026-05-07 11:04 | 53.30749 | 158.35389 | 6079 ft | 258 kts | 334° |
| 2026-05-07 11:04 | 53.32398 | 158.34274 | 6860 ft | 255 kts | 333° |
| 2026-05-07 11:04 | 53.34054 | 158.33138 | 7495 ft | 258 kts | 333° |
| 2026-05-07 11:04 | 53.35705 | 158.31951 | 8078 ft | 259 kts | 328° |
| 2026-05-07 11:05 | 53.37263 | 158.30415 | 8636 ft | 261 kts | 323° |
| 2026-05-07 11:05 | 53.38785 | 158.28744 | 9281 ft | 262 kts | 323° |
| 2026-05-07 11:05 | 53.40310 | 158.27057 | 9859 ft | 265 kts | 323° |
| 2026-05-07 11:05 | 53.41894 | 158.25311 | 10083 ft | 282 kts | 323° |
| 2026-05-07 11:06 | 53.43586 | 158.23457 | 10234 ft | 300 kts | 323° |
| 2026-05-07 11:06 | 53.45396 | 158.21490 | 10396 ft | 320 kts | 324° |
| 2026-05-07 11:06 | 53.47294 | 158.19436 | 10614 ft | 337 kts | 324° |
| 2026-05-07 11:06 | 53.49298 | 158.17281 | 11078 ft | 346 kts | 324° |
| 2026-05-07 11:07 | 53.51349 | 158.15083 | 11712 ft | 352 kts | 324° |
| 2026-05-07 11:07 | 53.53419 | 158.12863 | 12388 ft | 355 kts | 324° |
| 2026-05-07 11:07 | 53.55512 | 158.10617 | 13077 ft | 358 kts | 324° |
| 2026-05-07 11:07 | 53.57615 | 158.08354 | 13708 ft | 361 kts | 324° |
| 2026-05-07 11:08 | 53.59744 | 158.06060 | 14227 ft | 365 kts | 324° |
| 2026-05-07 11:08 | 53.61903 | 158.03736 | 14733 ft | 370 kts | 324° |
| 2026-05-07 11:08 | 53.64081 | 158.01379 | 15228 ft | 374 kts | 324° |
| 2026-05-07 11:08 | 53.66282 | 157.98998 | 15765 ft | 378 kts | 325° |
| 2026-05-07 11:09 | 53.68563 | 157.96720 | 16272 ft | 383 kts | 327° |
| 2026-05-07 11:09 | 53.70901 | 157.94526 | 16752 ft | 387 kts | 328° |
| 2026-05-07 11:09 | 53.73275 | 157.92304 | 17267 ft | 391 kts | 328° |
| 2026-05-07 11:09 | 53.75666 | 157.90027 | 17657 ft | 397 kts | 328° |
| 2026-05-07 11:10 | 53.78053 | 157.87734 | 18112 ft | 401 kts | 328° |
| 2026-05-07 11:10 | 53.80480 | 157.85385 | 18550 ft | 403 kts | 328° |
| 2026-05-07 11:10 | 53.82918 | 157.83009 | 18986 ft | 406 kts | 328° |
| 2026-05-07 11:10 | 53.85369 | 157.80613 | 19418 ft | 408 kts | 328° |
| 2026-05-07 11:11 | 53.87838 | 157.78199 | 19809 ft | 411 kts | 328° |
| 2026-05-07 11:11 | 53.90327 | 157.75762 | 20210 ft | 414 kts | 328° |
| 2026-05-07 11:11 | 53.92831 | 157.73308 | 20585 ft | 417 kts | 328° |
| 2026-05-07 11:11 | 53.95353 | 157.70834 | 20965 ft | 420 kts | 328° |
| 2026-05-07 11:12 | 53.97030 | 157.69186 | 21206 ft | 422 kts | 328° |
| 2026-05-07 11:12 | 53.99585 | 157.66673 | 21562 ft | 426 kts | 328° |
| 2026-05-07 11:12 | 54.02163 | 157.64134 | 21938 ft | 428 kts | 328° |
| 2026-05-07 11:12 | 54.05592 | 157.60753 | 22435 ft | 431 kts | 328° |
| 2026-05-07 11:13 | 54.07347 | 157.59020 | 22682 ft | 433 kts | 328° |
| 2026-05-07 11:13 | 54.09967 | 157.56428 | 23053 ft | 436 kts | 328° |
| 2026-05-07 11:13 | 54.12597 | 157.53826 | 23381 ft | 439 kts | 328° |
| 2026-05-07 11:13 | 54.15243 | 157.51213 | 23690 ft | 441 kts | 328° |
| 2026-05-07 11:14 | 54.17902 | 157.48586 | 24016 ft | 443 kts | 328° |
| 2026-05-07 11:14 | 54.20573 | 157.45948 | 24333 ft | 444 kts | 328° |
| 2026-05-07 11:14 | 54.23259 | 157.43288 | 24628 ft | 447 kts | 328° |
| 2026-05-07 11:14 | 54.25920 | 157.40648 | 24925 ft | 449 kts | 328° |
| 2026-05-07 11:15 | 54.28628 | 157.37957 | 25220 ft | 451 kts | 328° |
| 2026-05-07 11:15 | 54.31344 | 157.35253 | 25512 ft | 453 kts | 328° |
| 2026-05-07 11:15 | 54.34069 | 157.32535 | 25803 ft | 455 kts | 328° |
| 2026-05-07 11:15 | 54.36808 | 157.29799 | 26090 ft | 457 kts | 328° |
| 2026-05-07 11:16 | 54.39563 | 157.27043 | 26369 ft | 458 kts | 328° |
| 2026-05-07 11:16 | 54.42321 | 157.24280 | 26650 ft | 460 kts | 328° |
| 2026-05-07 11:16 | 54.45091 | 157.21499 | 26932 ft | 462 kts | 328° |
| 2026-05-07 11:16 | 54.47875 | 157.18700 | 27209 ft | 464 kts | 328° |
| 2026-05-07 11:17 | 54.50667 | 157.15889 | 27463 ft | 466 kts | 328° |
| 2026-05-07 11:17 | 54.53469 | 157.13064 | 27729 ft | 468 kts | 328° |
| 2026-05-07 11:17 | 54.56288 | 157.10217 | 27974 ft | 470 kts | 328° |
| 2026-05-07 11:17 | 54.59114 | 157.07358 | 28232 ft | 472 kts | 328° |
| 2026-05-07 11:18 | 54.61951 | 157.04484 | 28467 ft | 473 kts | 328° |
| 2026-05-07 11:18 | 54.64793 | 157.01600 | 28703 ft | 475 kts | 328° |
| 2026-05-07 11:18 | 54.67608 | 156.98746 | 28971 ft | 475 kts | 328° |
| 2026-05-07 11:18 | 54.70468 | 156.95845 | 29163 ft | 477 kts | 328° |
| 2026-05-07 11:19 | 54.73335 | 156.92934 | 29365 ft | 478 kts | 328° |
| 2026-05-07 11:19 | 54.76209 | 156.90011 | 29531 ft | 480 kts | 328° |
| 2026-05-07 11:19 | 54.79085 | 156.87081 | 29827 ft | 479 kts | 328° |
| 2026-05-07 11:19 | 54.81955 | 156.84152 | 30023 ft | 479 kts | 328° |
| 2026-05-07 11:20 | 54.84827 | 156.81214 | 30227 ft | 479 kts | 328° |
| 2026-05-07 11:20 | 54.87701 | 156.78265 | 30434 ft | 479 kts | 328° |
| 2026-05-07 11:20 | 54.90578 | 156.75291 | 30607 ft | 480 kts | 328° |
| 2026-05-07 11:20 | 54.93449 | 156.72315 | 30791 ft | 481 kts | 328° |
| 2026-05-07 11:21 | 54.96321 | 156.69335 | 30997 ft | 481 kts | 328° |
| 2026-05-07 11:21 | 54.99191 | 156.66356 | 31200 ft | 481 kts | 328° |
| 2026-05-07 11:21 | 55.02036 | 156.63412 | 31385 ft | 481 kts | 328° |
| 2026-05-07 11:21 | 55.04922 | 156.60425 | 31574 ft | 482 kts | 328° |
| 2026-05-07 11:22 | 55.07806 | 156.57435 | 31767 ft | 482 kts | 328° |
| 2026-05-07 11:22 | 55.10690 | 156.54439 | 31964 ft | 482 kts | 328° |
| 2026-05-07 11:22 | 55.13570 | 156.51440 | 32174 ft | 482 kts | 328° |
| 2026-05-07 11:22 | 55.16457 | 156.48429 | 32360 ft | 482 kts | 328° |
| 2026-05-07 11:23 | 55.19338 | 156.45418 | 32538 ft | 483 kts | 328° |
| 2026-05-07 11:23 | 55.22226 | 156.42395 | 32712 ft | 483 kts | 328° |
| 2026-05-07 11:23 | 55.25110 | 156.39370 | 32901 ft | 484 kts | 327° |
| 2026-05-07 11:23 | 55.27997 | 156.36338 | 33084 ft | 484 kts | 327° |
| 2026-05-07 11:24 | 55.30849 | 156.33337 | 33261 ft | 484 kts | 327° |
| 2026-05-07 11:24 | 55.33740 | 156.30289 | 33439 ft | 485 kts | 327° |
| 2026-05-07 11:24 | 55.36636 | 156.27233 | 33568 ft | 486 kts | 327° |
| 2026-05-07 11:24 | 55.39545 | 156.24156 | 33621 ft | 488 kts | 327° |
| 2026-05-07 11:25 | 55.45354 | 156.17954 | 33655 ft | 488 kts | 327° |
| 2026-05-07 11:25 | 55.51126 | 156.11760 | 33657 ft | 484 kts | 327° |
| 2026-05-07 11:26 | 55.56872 | 156.05599 | 33668 ft | 481 kts | 327° |
| 2026-05-07 11:26 | 55.62599 | 155.99442 | 33659 ft | 481 kts | 327° |
| 2026-05-07 11:27 | 55.68281 | 155.93309 | 33656 ft | 481 kts | 327° |
| 2026-05-07 11:27 | 55.74009 | 155.87102 | 33655 ft | 483 kts | 327° |
| 2026-05-07 11:28 | 55.79751 | 155.80859 | 33659 ft | 484 kts | 327° |
| 2026-05-07 11:28 | 55.85512 | 155.74573 | 33653 ft | 486 kts | 327° |
| 2026-05-07 11:29 | 55.91291 | 155.68245 | 33656 ft | 488 kts | 327° |
| 2026-05-07 11:29 | 55.97077 | 155.61885 | 33648 ft | 489 kts | 327° |
| 2026-05-07 11:30 | 56.02835 | 155.55536 | 33648 ft | 489 kts | 327° |
| 2026-05-07 11:30 | 56.08638 | 155.49114 | 33648 ft | 490 kts | 327° |
| 2026-05-07 11:31 | 56.14436 | 155.42673 | 33647 ft | 490 kts | 327° |
| 2026-05-07 11:31 | 56.20234 | 155.36230 | 33645 ft | 490 kts | 327° |
| 2026-05-07 11:32 | 56.28939 | 155.26709 | 33648 ft | 490 kts | 328° |
| 2026-05-07 11:33 | 56.34765 | 155.20319 | 33649 ft | 490 kts | 328° |
| 2026-05-07 11:33 | 56.40581 | 155.13902 | 33648 ft | 490 kts | 328° |
| 2026-05-07 11:34 | 56.46398 | 155.07454 | 33648 ft | 489 kts | 328° |
| 2026-05-07 11:34 | 56.52170 | 155.01032 | 33647 ft | 490 kts | 327° |
| 2026-05-07 11:35 | 56.57978 | 154.94547 | 33653 ft | 490 kts | 328° |
| 2026-05-07 11:35 | 56.63793 | 154.88031 | 33652 ft | 491 kts | 327° |
| 2026-05-07 11:36 | 56.69605 | 154.81495 | 33652 ft | 491 kts | 327° |
| 2026-05-07 11:36 | 56.75389 | 154.74965 | 33652 ft | 492 kts | 327° |
| 2026-05-07 11:37 | 56.81214 | 154.68366 | 33655 ft | 492 kts | 327° |
| 2026-05-07 11:37 | 56.87034 | 154.61747 | 33654 ft | 493 kts | 327° |
| 2026-05-07 11:38 | 56.92851 | 154.55108 | 33659 ft | 493 kts | 327° |
| 2026-05-07 11:38 | 56.98668 | 154.48442 | 33660 ft | 493 kts | 327° |
| 2026-05-07 11:39 | 57.04443 | 154.41802 | 33663 ft | 493 kts | 327° |
| 2026-05-07 11:39 | 57.10262 | 154.35083 | 33667 ft | 494 kts | 327° |
| 2026-05-07 11:40 | 57.16090 | 154.28328 | 33666 ft | 494 kts | 327° |
| 2026-05-07 11:40 | 57.21888 | 154.21580 | 33663 ft | 491 kts | 327° |
| 2026-05-07 11:41 | 57.27623 | 154.14774 | 33666 ft | 489 kts | 327° |
| 2026-05-07 11:41 | 57.33334 | 154.07944 | 33673 ft | 488 kts | 326° |
| 2026-05-07 11:42 | 57.39048 | 154.01099 | 33681 ft | 489 kts | 327° |
| 2026-05-07 11:42 | 57.44740 | 153.94261 | 33681 ft | 490 kts | 326° |
| 2026-05-07 11:43 | 57.50483 | 153.87339 | 33687 ft | 492 kts | 326° |
| 2026-05-07 11:43 | 57.56242 | 153.80370 | 33692 ft | 494 kts | 327° |
| 2026-05-07 11:44 | 57.62017 | 153.73355 | 33690 ft | 495 kts | 326° |
| 2026-05-07 11:44 | 57.67795 | 153.66308 | 33692 ft | 496 kts | 326° |
| 2026-05-07 11:45 | 57.73547 | 153.59266 | 33691 ft | 497 kts | 326° |
| 2026-05-07 11:45 | 57.79330 | 153.52161 | 33699 ft | 497 kts | 326° |
| 2026-05-07 11:46 | 57.85125 | 153.45034 | 33696 ft | 497 kts | 327° |
| 2026-05-07 11:46 | 57.90916 | 153.37901 | 33700 ft | 497 kts | 326° |
| 2026-05-07 11:47 | 57.96702 | 153.30741 | 33699 ft | 497 kts | 327° |
| 2026-05-07 11:47 | 58.02470 | 153.23573 | 33701 ft | 496 kts | 326° |
| 2026-05-07 11:48 | 58.08190 | 153.16436 | 33710 ft | 496 kts | 326° |
| 2026-05-07 11:48 | 58.13945 | 153.09229 | 33713 ft | 495 kts | 326° |
| 2026-05-07 11:49 | 58.19689 | 153.01990 | 33709 ft | 495 kts | 326° |
| 2026-05-07 11:49 | 58.25318 | 152.94420 | 33714 ft | 496 kts | 324° |
| 2026-05-07 11:50 | 58.30953 | 152.86830 | 33716 ft | 497 kts | 325° |
| 2026-05-07 11:50 | 58.36622 | 152.79264 | 33720 ft | 497 kts | 325° |
| 2026-05-07 11:51 | 58.42255 | 152.71709 | 33723 ft | 498 kts | 325° |
| 2026-05-07 11:51 | 58.47915 | 152.64073 | 33728 ft | 498 kts | 325° |
| 2026-05-07 11:52 | 58.53576 | 152.56402 | 33729 ft | 497 kts | 324° |
| 2026-05-07 11:52 | 58.59227 | 152.48765 | 33729 ft | 497 kts | 326° |
| 2026-05-07 11:53 | 58.64986 | 152.41420 | 33732 ft | 496 kts | 327° |
| 2026-05-07 11:53 | 58.70742 | 152.34091 | 33737 ft | 496 kts | 326° |
| 2026-05-07 11:54 | 58.76440 | 152.26719 | 33743 ft | 496 kts | 326° |
| 2026-05-07 11:54 | 58.82166 | 152.19257 | 33745 ft | 496 kts | 326° |
| 2026-05-07 11:55 | 58.87890 | 152.11769 | 33747 ft | 497 kts | 326° |
| 2026-05-07 11:55 | 58.93613 | 152.04256 | 33756 ft | 497 kts | 326° |
| 2026-05-07 11:56 | 58.99330 | 151.96720 | 33752 ft | 497 kts | 326° |
| 2026-05-07 11:56 | 59.05047 | 151.89155 | 33755 ft | 497 kts | 326° |
| 2026-05-07 11:57 | 59.10762 | 151.81568 | 33763 ft | 497 kts | 326° |
| 2026-05-07 11:57 | 59.16449 | 151.74048 | 33762 ft | 497 kts | 326° |
| 2026-05-07 11:58 | 59.22173 | 151.66457 | 33761 ft | 497 kts | 326° |
| 2026-05-07 11:58 | 59.27894 | 151.58830 | 33760 ft | 497 kts | 326° |
| 2026-05-07 11:59 | 59.33569 | 151.51240 | 33763 ft | 497 kts | 326° |
| 2026-05-07 11:59 | 59.39296 | 151.43609 | 33764 ft | 497 kts | 326° |
| 2026-05-07 12:00 | 59.45014 | 151.35969 | 33765 ft | 497 kts | 326° |
| 2026-05-07 12:00 | 59.50730 | 151.28290 | 33766 ft | 497 kts | 326° |
| 2026-05-07 12:01 | 59.55473 | 151.21888 | 33765 ft | 497 kts | 326° |
| 2026-05-07 12:01 | 59.61175 | 151.14169 | 33758 ft | 497 kts | 326° |
| 2026-05-07 12:02 | 59.67760 | 151.05050 | 33758 ft | 497 kts | 325° |
| 2026-05-07 12:02 | 59.72465 | 150.98379 | 33759 ft | 496 kts | 325° |
| 2026-05-07 12:03 | 59.78050 | 150.90449 | 33750 ft | 496 kts | 325° |
| 2026-05-07 12:03 | 59.83667 | 150.82469 | 33745 ft | 496 kts | 325° |
| 2026-05-07 12:04 | 59.89280 | 150.74466 | 33742 ft | 495 kts | 325° |
| 2026-05-07 12:04 | 59.94926 | 150.66557 | 33749 ft | 495 kts | 326° |
| 2026-05-07 12:05 | 60.00639 | 150.58876 | 33748 ft | 495 kts | 327° |
| 2026-05-07 12:05 | 60.06295 | 150.51205 | 33751 ft | 495 kts | 326° |
| 2026-05-07 12:06 | 60.11985 | 150.43401 | 33747 ft | 495 kts | 326° |
| 2026-05-07 12:06 | 60.17669 | 150.35585 | 33762 ft | 495 kts | 326° |
| 2026-05-07 12:07 | 60.23364 | 150.27740 | 33757 ft | 495 kts | 326° |
| 2026-05-07 12:07 | 60.29019 | 150.19918 | 33769 ft | 496 kts | 326° |
| 2026-05-07 12:08 | 60.34702 | 150.12021 | 33766 ft | 496 kts | 326° |
| 2026-05-07 12:08 | 60.40394 | 150.04090 | 33771 ft | 496 kts | 326° |
| 2026-05-07 12:09 | 60.46075 | 149.96135 | 33768 ft | 497 kts | 326° |
| 2026-05-07 12:09 | 60.51759 | 149.88127 | 33791 ft | 497 kts | 326° |
| 2026-05-07 12:10 | 60.57441 | 149.80084 | 33772 ft | 497 kts | 326° |
| 2026-05-07 12:10 | 60.63082 | 149.72067 | 33776 ft | 497 kts | 326° |
| 2026-05-07 12:11 | 60.68761 | 149.63961 | 33783 ft | 498 kts | 326° |
| 2026-05-07 12:11 | 60.74429 | 149.55836 | 33786 ft | 498 kts | 326° |
| 2026-05-07 12:12 | 60.80095 | 149.47676 | 33795 ft | 498 kts | 326° |
| 2026-05-07 12:12 | 60.85726 | 149.39532 | 33797 ft | 498 kts | 326° |
| 2026-05-07 12:13 | 60.91391 | 149.31302 | 33786 ft | 498 kts | 326° |
| 2026-05-07 12:13 | 60.97042 | 149.23056 | 33799 ft | 498 kts | 326° |
| 2026-05-07 12:14 | 61.02698 | 149.14765 | 33803 ft | 499 kts | 326° |
| 2026-05-07 12:14 | 61.08345 | 149.06449 | 33799 ft | 499 kts | 326° |
| 2026-05-07 12:15 | 61.13960 | 148.98149 | 33787 ft | 499 kts | 326° |
| 2026-05-07 12:15 | 61.19599 | 148.89780 | 33796 ft | 499 kts | 326° |
| 2026-05-07 12:16 | 61.25275 | 148.81327 | 33813 ft | 505 kts | 326° |
| 2026-05-07 12:16 | 61.31004 | 148.72754 | 33816 ft | 510 kts | 325° |
| 2026-05-07 12:17 | 61.36787 | 148.64060 | 33802 ft | 515 kts | 325° |
| 2026-05-07 12:17 | 61.42617 | 148.55251 | 33809 ft | 518 kts | 325° |
| 2026-05-07 12:18 | 61.48472 | 148.46367 | 33808 ft | 521 kts | 325° |
| 2026-05-07 12:18 | 61.54336 | 148.37416 | 33809 ft | 522 kts | 325° |
| 2026-05-07 12:19 | 61.60179 | 148.28416 | 33807 ft | 523 kts | 325° |
| 2026-05-07 12:19 | 61.66031 | 148.19357 | 33799 ft | 521 kts | 325° |
| 2026-05-07 12:20 | 61.71859 | 148.10292 | 33806 ft | 520 kts | 325° |
| 2026-05-07 12:20 | 61.77665 | 148.01222 | 33796 ft | 518 kts | 324° |
| 2026-05-07 12:21 | 61.83448 | 147.92145 | 33798 ft | 517 kts | 324° |
| 2026-05-07 12:21 | 61.89214 | 147.83053 | 33793 ft | 516 kts | 324° |
| 2026-05-07 12:22 | 61.94925 | 147.74000 | 33800 ft | 515 kts | 324° |
| 2026-05-07 12:22 | 62.00668 | 147.64855 | 33793 ft | 515 kts | 324° |
| 2026-05-07 12:23 | 62.06399 | 147.55685 | 33800 ft | 515 kts | 324° |
| 2026-05-07 12:23 | 62.12129 | 147.46472 | 33780 ft | 515 kts | 324° |
| 2026-05-07 12:24 | 62.17861 | 147.37211 | 33790 ft | 516 kts | 324° |
| 2026-05-07 12:24 | 62.23582 | 147.27924 | 33796 ft | 517 kts | 324° |
| 2026-05-07 12:25 | 62.29308 | 147.18577 | 33790 ft | 518 kts | 324° |
| 2026-05-07 12:25 | 62.35007 | 147.09235 | 33783 ft | 518 kts | 324° |
| 2026-05-07 12:26 | 62.40755 | 146.99764 | 33785 ft | 519 kts | 324° |
| 2026-05-07 12:26 | 62.46483 | 146.90281 | 33786 ft | 519 kts | 324° |
| 2026-05-07 12:27 | 62.52207 | 146.80754 | 33782 ft | 519 kts | 323° |
| 2026-05-07 12:27 | 62.57922 | 146.71197 | 33783 ft | 519 kts | 323° |
| 2026-05-07 12:28 | 62.63637 | 146.61593 | 33774 ft | 519 kts | 323° |
| 2026-05-07 12:28 | 62.69309 | 146.52025 | 33780 ft | 519 kts | 323° |
| 2026-05-07 12:29 | 62.75032 | 146.42361 | 33790 ft | 520 kts | 323° |
| 2026-05-07 12:29 | 62.80752 | 146.32655 | 33786 ft | 521 kts | 323° |
| 2026-05-07 12:30 | 62.86474 | 146.22892 | 33775 ft | 522 kts | 323° |
| 2026-05-07 12:30 | 62.92198 | 146.13069 | 33783 ft | 522 kts | 323° |
| 2026-05-07 12:31 | 62.97874 | 146.03281 | 33790 ft | 522 kts | 323° |
| 2026-05-07 12:31 | 63.03588 | 145.93382 | 33783 ft | 523 kts | 323° |
| 2026-05-07 12:32 | 63.09296 | 145.83444 | 33774 ft | 523 kts | 322° |
| 2026-05-07 12:32 | 63.15002 | 145.73466 | 33776 ft | 523 kts | 322° |
| 2026-05-07 12:33 | 63.23552 | 145.58407 | 33772 ft | 524 kts | 322° |
| 2026-05-07 12:33 | 63.29246 | 145.48318 | 33775 ft | 524 kts | 322° |
| 2026-05-07 12:34 | 63.34933 | 145.38181 | 33752 ft | 524 kts | 321° |
| 2026-05-07 12:34 | 63.40600 | 145.27975 | 33774 ft | 524 kts | 321° |
| 2026-05-07 12:35 | 63.46259 | 145.17714 | 33759 ft | 524 kts | 321° |
| 2026-05-07 12:35 | 63.51912 | 145.07417 | 33756 ft | 524 kts | 321° |
| 2026-05-07 12:36 | 63.57523 | 144.97151 | 33770 ft | 524 kts | 321° |
| 2026-05-07 12:36 | 63.63165 | 144.86778 | 33750 ft | 524 kts | 321° |
| 2026-05-07 12:37 | 63.68802 | 144.76350 | 33746 ft | 524 kts | 320° |
| 2026-05-07 12:37 | 63.74429 | 144.65886 | 33737 ft | 524 kts | 320° |
| 2026-05-07 12:38 | 63.80054 | 144.55371 | 33739 ft | 525 kts | 320° |
| 2026-05-07 12:38 | 63.85682 | 144.44799 | 33743 ft | 524 kts | 320° |
| 2026-05-07 12:39 | 63.91253 | 144.34268 | 33736 ft | 525 kts | 320° |
| 2026-05-07 12:39 | 63.96864 | 144.23614 | 33742 ft | 524 kts | 320° |
| 2026-05-07 12:40 | 64.02463 | 144.12920 | 33740 ft | 525 kts | 319° |
| 2026-05-07 12:40 | 64.08021 | 144.02257 | 33733 ft | 524 kts | 319° |
| 2026-05-07 12:41 | 64.13624 | 143.91519 | 33735 ft | 524 kts | 320° |
| 2026-05-07 12:41 | 64.19217 | 143.80763 | 33749 ft | 524 kts | 319° |
| 2026-05-07 12:42 | 64.24807 | 143.69944 | 33732 ft | 524 kts | 319° |
| 2026-05-07 12:42 | 64.30371 | 143.59097 | 33730 ft | 524 kts | 319° |
| 2026-05-07 12:43 | 64.35896 | 143.48256 | 33727 ft | 524 kts | 319° |
| 2026-05-07 12:43 | 64.41442 | 143.37309 | 33734 ft | 524 kts | 319° |
| 2026-05-07 12:44 | 64.46990 | 143.26300 | 33733 ft | 524 kts | 318° |
| 2026-05-07 12:44 | 64.52527 | 143.15262 | 33719 ft | 524 kts | 318° |
| 2026-05-07 12:45 | 64.57947 | 143.03939 | 33725 ft | 523 kts | 315° |
| 2026-05-07 12:45 | 64.63144 | 142.92060 | 33729 ft | 523 kts | 314° |
| 2026-05-07 12:46 | 64.68315 | 142.80079 | 33724 ft | 524 kts | 314° |
| 2026-05-07 12:46 | 64.73484 | 142.68175 | 33718 ft | 525 kts | 314° |
| 2026-05-07 12:47 | 64.78695 | 142.56170 | 33723 ft | 525 kts | 314° |
| 2026-05-07 12:47 | 64.83895 | 142.44120 | 33729 ft | 525 kts | 313° |
| 2026-05-07 12:48 | 64.89089 | 142.32000 | 33724 ft | 526 kts | 313° |
| 2026-05-07 12:48 | 64.94240 | 142.19919 | 33715 ft | 526 kts | 313° |
| 2026-05-07 12:49 | 64.99419 | 142.07702 | 33725 ft | 526 kts | 313° |
| 2026-05-07 12:49 | 65.04588 | 141.95476 | 33753 ft | 525 kts | 313° |
| 2026-05-07 12:50 | 65.08872 | 141.85285 | 33736 ft | 524 kts | 313° |
| 2026-05-07 12:50 | 65.13996 | 141.73041 | 33725 ft | 522 kts | 313° |
| 2026-05-07 12:51 | 65.19101 | 141.60772 | 33731 ft | 520 kts | 313° |
| 2026-05-07 12:51 | 65.24179 | 141.48490 | 33727 ft | 519 kts | 312° |
| 2026-05-07 12:52 | 65.29238 | 141.36195 | 33748 ft | 518 kts | 312° |
| 2026-05-07 12:52 | 65.34282 | 141.23884 | 33732 ft | 518 kts | 312° |
| 2026-05-07 12:53 | 65.39326 | 141.11527 | 33734 ft | 519 kts | 312° |
| 2026-05-07 12:53 | 65.44336 | 140.99179 | 33717 ft | 520 kts | 312° |
| 2026-05-07 12:54 | 65.49372 | 140.86690 | 33734 ft | 520 kts | 311° |
| 2026-05-07 12:54 | 65.54407 | 140.74122 | 33731 ft | 521 kts | 311° |
| 2026-05-07 12:55 | 65.59443 | 140.61476 | 33732 ft | 522 kts | 311° |
| 2026-05-07 12:55 | 65.64475 | 140.48779 | 33712 ft | 523 kts | 311° |
| 2026-05-07 12:56 | 65.69507 | 140.36003 | 33722 ft | 523 kts | 311° |
| 2026-05-07 12:56 | 65.74499 | 140.23246 | 33732 ft | 523 kts | 310° |
| 2026-05-07 12:57 | 65.79508 | 140.10365 | 33718 ft | 524 kts | 310° |
| 2026-05-07 12:57 | 65.84521 | 139.97400 | 33712 ft | 524 kts | 310° |
| 2026-05-07 12:58 | 65.89519 | 139.84395 | 33712 ft | 524 kts | 310° |
| 2026-05-07 12:58 | 65.94469 | 139.71434 | 33706 ft | 524 kts | 310° |
| 2026-05-07 12:59 | 65.99438 | 139.58344 | 33713 ft | 524 kts | 310° |
| 2026-05-07 12:59 | 66.04397 | 139.45203 | 33704 ft | 523 kts | 310° |
| 2026-05-07 13:00 | 66.09336 | 139.32025 | 33698 ft | 523 kts | 309° |
| 2026-05-07 13:00 | 66.14264 | 139.18811 | 33700 ft | 522 kts | 309° |
| 2026-05-07 13:01 | 66.19134 | 139.05601 | 33703 ft | 522 kts | 309° |
| 2026-05-07 13:01 | 66.23993 | 138.92209 | 33697 ft | 522 kts | 309° |
| 2026-05-07 13:02 | 66.28838 | 138.78765 | 33697 ft | 522 kts | 308° |
| 2026-05-07 13:02 | 66.33675 | 138.65284 | 33681 ft | 522 kts | 308° |
| 2026-05-07 13:03 | 66.38497 | 138.51770 | 33692 ft | 522 kts | 308° |
| 2026-05-07 13:03 | 66.43310 | 138.38194 | 33689 ft | 522 kts | 308° |
| 2026-05-07 13:04 | 66.48080 | 138.24654 | 33683 ft | 522 kts | 308° |
| 2026-05-07 13:04 | 66.52872 | 138.10966 | 33685 ft | 522 kts | 308° |
| 2026-05-07 13:05 | 66.57657 | 137.97209 | 33670 ft | 522 kts | 308° |
| 2026-05-07 13:05 | 66.62426 | 137.83411 | 33673 ft | 523 kts | 308° |
| 2026-05-07 13:06 | 66.67187 | 137.69546 | 33671 ft | 523 kts | 307° |
| 2026-05-07 13:06 | 66.71944 | 137.55616 | 33665 ft | 524 kts | 307° |
| 2026-05-07 13:07 | 66.76691 | 137.41638 | 33666 ft | 524 kts | 307° |
| 2026-05-07 13:07 | 66.81440 | 137.27616 | 33665 ft | 524 kts | 307° |
| 2026-05-07 13:08 | 66.86145 | 137.13634 | 33684 ft | 524 kts | 307° |
| 2026-05-07 13:08 | 66.90869 | 136.99496 | 33662 ft | 524 kts | 307° |
| 2026-05-07 13:09 | 66.95579 | 136.85305 | 33663 ft | 524 kts | 307° |
| 2026-05-07 13:09 | 67.00279 | 136.71048 | 33641 ft | 524 kts | 307° |
| 2026-05-07 13:10 | 67.04962 | 136.56750 | 33661 ft | 524 kts | 306° |
| 2026-05-07 13:10 | 67.09634 | 136.42391 | 33655 ft | 524 kts | 307° |
| 2026-05-07 13:11 | 67.14259 | 136.28084 | 33643 ft | 523 kts | 306° |
| 2026-05-07 13:11 | 67.18888 | 136.13680 | 33633 ft | 522 kts | 306° |
| 2026-05-07 13:12 | 67.23532 | 135.99304 | 33637 ft | 521 kts | 307° |
| 2026-05-07 13:12 | 67.28187 | 135.84969 | 33630 ft | 520 kts | 307° |
| 2026-05-07 13:13 | 67.32828 | 135.70562 | 33643 ft | 520 kts | 307° |
| 2026-05-07 13:13 | 67.37447 | 135.56096 | 33635 ft | 520 kts | 306° |
| 2026-05-07 13:14 | 67.42044 | 135.41593 | 33634 ft | 519 kts | 306° |
| 2026-05-07 13:14 | 67.46595 | 135.27139 | 33656 ft | 520 kts | 306° |
| 2026-05-07 13:15 | 67.48885 | 135.19831 | 33760 ft | 520 kts | 306° |
| 2026-05-07 13:15 | 67.51171 | 135.12510 | 33884 ft | 519 kts | 306° |
| 2026-05-07 13:15 | 67.53449 | 135.05195 | 34050 ft | 518 kts | 306° |
| 2026-05-07 13:15 | 67.55718 | 134.97879 | 34194 ft | 517 kts | 306° |
| 2026-05-07 13:16 | 67.60244 | 134.83213 | 34351 ft | 518 kts | 306° |
| 2026-05-07 13:16 | 67.64757 | 134.68501 | 34558 ft | 517 kts | 306° |
| 2026-05-07 13:17 | 67.67041 | 134.61201 | 34663 ft | 517 kts | 307° |
| 2026-05-07 13:17 | 67.69369 | 134.53979 | 34753 ft | 518 kts | 308° |
| 2026-05-07 13:17 | 67.71715 | 134.46772 | 34854 ft | 518 kts | 308° |
| 2026-05-07 13:17 | 67.74056 | 134.39565 | 34962 ft | 518 kts | 308° |
| 2026-05-07 13:18 | 67.78711 | 134.25056 | 35136 ft | 518 kts | 308° |
| 2026-05-07 13:18 | 67.83334 | 134.10455 | 35317 ft | 517 kts | 308° |
| 2026-05-07 13:19 | 67.87906 | 133.95904 | 35501 ft | 516 kts | 307° |
| 2026-05-07 13:19 | 67.92486 | 133.81248 | 35612 ft | 515 kts | 307° |
| 2026-05-07 13:20 | 67.97062 | 133.66568 | 35652 ft | 516 kts | 308° |
| 2026-05-07 13:20 | 68.01710 | 133.51959 | 35646 ft | 517 kts | 308° |
| 2026-05-07 13:21 | 68.06367 | 133.37250 | 35643 ft | 518 kts | 308° |
| 2026-05-07 13:21 | 68.11002 | 133.22450 | 35640 ft | 519 kts | 308° |
| 2026-05-07 13:22 | 68.15566 | 133.07460 | 35636 ft | 518 kts | 307° |
| 2026-05-07 13:22 | 68.20055 | 132.92411 | 35646 ft | 518 kts | 307° |
| 2026-05-07 13:23 | 68.24554 | 132.77249 | 35635 ft | 518 kts | 307° |
| 2026-05-07 13:23 | 68.29044 | 132.62057 | 35633 ft | 517 kts | 307° |
| 2026-05-07 13:24 | 68.33518 | 132.46837 | 35644 ft | 516 kts | 307° |
| 2026-05-07 13:24 | 68.37966 | 132.31594 | 35644 ft | 515 kts | 307° |
| 2026-05-07 13:25 | 68.42363 | 132.16416 | 35662 ft | 514 kts | 307° |
| 2026-05-07 13:25 | 68.46767 | 132.01107 | 35654 ft | 513 kts | 307° |
| 2026-05-07 13:26 | 68.51153 | 131.85750 | 35656 ft | 512 kts | 306° |
| 2026-05-07 13:26 | 68.55515 | 131.70370 | 35663 ft | 512 kts | 306° |
| 2026-05-07 13:27 | 68.59862 | 131.54935 | 35663 ft | 511 kts | 306° |
| 2026-05-07 13:27 | 68.64185 | 131.39456 | 35672 ft | 510 kts | 306° |
| 2026-05-07 13:28 | 68.68464 | 131.24061 | 35654 ft | 509 kts | 306° |
| 2026-05-07 13:28 | 68.72743 | 131.08534 | 35669 ft | 508 kts | 306° |
| 2026-05-07 13:29 | 68.77000 | 130.92978 | 35670 ft | 508 kts | 306° |
| 2026-05-07 13:29 | 68.81251 | 130.77333 | 35675 ft | 508 kts | 306° |
| 2026-05-07 13:30 | 68.85449 | 130.61772 | 35659 ft | 507 kts | 306° |
| 2026-05-07 13:30 | 68.89655 | 130.46066 | 35653 ft | 507 kts | 306° |
| 2026-05-07 13:31 | 68.93850 | 130.30290 | 35644 ft | 507 kts | 305° |
| 2026-05-07 13:31 | 68.98030 | 130.14456 | 35628 ft | 508 kts | 305° |
| 2026-05-07 13:32 | 69.02198 | 129.98549 | 35637 ft | 508 kts | 305° |
| 2026-05-07 13:32 | 69.06352 | 129.82579 | 35631 ft | 508 kts | 305° |
| 2026-05-07 13:33 | 69.10488 | 129.66562 | 35630 ft | 507 kts | 305° |
| 2026-05-07 13:33 | 69.14579 | 129.50599 | 35638 ft | 507 kts | 305° |
| 2026-05-07 13:34 | 69.20732 | 129.26368 | 35635 ft | 507 kts | 304° |
| 2026-05-07 13:35 | 69.24811 | 129.10163 | 35639 ft | 506 kts | 304° |
| 2026-05-07 13:35 | 69.28874 | 128.93943 | 35639 ft | 505 kts | 304° |
| 2026-05-07 13:36 | 69.32940 | 128.77772 | 35632 ft | 504 kts | 304° |
| 2026-05-07 13:36 | 69.36991 | 128.61576 | 35629 ft | 503 kts | 304° |
| 2026-05-07 13:37 | 69.41017 | 128.45337 | 35625 ft | 503 kts | 304° |
| 2026-05-07 13:37 | 69.45020 | 128.29051 | 35627 ft | 502 kts | 304° |
| 2026-05-07 13:38 | 69.48979 | 128.12822 | 35622 ft | 501 kts | 303° |
| 2026-05-07 13:38 | 69.52947 | 127.96432 | 35627 ft | 501 kts | 303° |
| 2026-05-07 13:39 | 69.56900 | 127.79982 | 35624 ft | 501 kts | 303° |
| 2026-05-07 13:39 | 69.60176 | 127.66253 | 35625 ft | 501 kts | 303° |
| 2026-05-07 13:40 | 69.64736 | 127.46993 | 35628 ft | 502 kts | 303° |
| 2026-05-07 13:40 | 69.68015 | 127.33041 | 35630 ft | 503 kts | 303° |
| 2026-05-07 13:41 | 69.71900 | 127.16389 | 35628 ft | 504 kts | 303° |
| 2026-05-07 13:41 | 69.75808 | 126.99511 | 35627 ft | 505 kts | 303° |
| 2026-05-07 13:42 | 69.79695 | 126.82589 | 35627 ft | 505 kts | 303° |
| 2026-05-07 13:42 | 69.83567 | 126.65597 | 35634 ft | 506 kts | 302° |
| 2026-05-07 13:43 | 69.87408 | 126.48628 | 35630 ft | 506 kts | 302° |
| 2026-05-07 13:43 | 69.91242 | 126.31455 | 35629 ft | 506 kts | 302° |
| 2026-05-07 13:44 | 69.95033 | 126.14194 | 35628 ft | 506 kts | 302° |
| 2026-05-07 13:44 | 69.98803 | 125.96880 | 35628 ft | 506 kts | 302° |
| 2026-05-07 13:45 | 70.02563 | 125.79503 | 35630 ft | 505 kts | 301° |
| 2026-05-07 13:45 | 70.06306 | 125.62074 | 35616 ft | 505 kts | 301° |
| 2026-05-07 13:46 | 70.10029 | 125.44599 | 35629 ft | 504 kts | 301° |
| 2026-05-07 13:46 | 70.13727 | 125.27096 | 35631 ft | 504 kts | 301° |
| 2026-05-07 13:47 | 70.17402 | 125.09557 | 35626 ft | 504 kts | 301° |
| 2026-05-07 13:47 | 70.21063 | 124.91939 | 35639 ft | 503 kts | 301° |
| 2026-05-07 13:48 | 70.24700 | 124.74292 | 35632 ft | 503 kts | 301° |
| 2026-05-07 13:48 | 70.28317 | 124.56597 | 35633 ft | 502 kts | 300° |
| 2026-05-07 13:49 | 70.31894 | 124.38952 | 35632 ft | 502 kts | 300° |
| 2026-05-07 13:49 | 70.35474 | 124.21141 | 35632 ft | 502 kts | 300° |
| 2026-05-07 13:50 | 70.39031 | 124.03296 | 35642 ft | 502 kts | 300° |
| 2026-05-07 13:50 | 70.42575 | 123.85364 | 35636 ft | 501 kts | 300° |
| 2026-05-07 13:51 | 70.46097 | 123.67398 | 35636 ft | 501 kts | 300° |
| 2026-05-07 13:51 | 70.49599 | 123.49394 | 35635 ft | 501 kts | 300° |
| 2026-05-07 13:52 | 70.53123 | 123.31370 | 35636 ft | 501 kts | 300° |
| 2026-05-07 13:52 | 70.56629 | 123.13447 | 35638 ft | 501 kts | 300° |
| 2026-05-07 13:53 | 70.60132 | 122.95349 | 35641 ft | 501 kts | 300° |
| 2026-05-07 13:53 | 70.63615 | 122.77167 | 35637 ft | 501 kts | 299° |
| 2026-05-07 13:54 | 70.67079 | 122.58921 | 35637 ft | 501 kts | 299° |
| 2026-05-07 13:54 | 70.70525 | 122.40631 | 35638 ft | 501 kts | 299° |
| 2026-05-07 13:55 | 70.73948 | 122.22265 | 35644 ft | 501 kts | 298° |
| 2026-05-07 13:55 | 70.77344 | 122.03808 | 35637 ft | 501 kts | 298° |
| 2026-05-07 13:56 | 70.80724 | 121.85280 | 35640 ft | 501 kts | 298° |
| 2026-05-07 13:56 | 70.84060 | 121.66839 | 35640 ft | 501 kts | 298° |
| 2026-05-07 13:57 | 70.87403 | 121.48198 | 35634 ft | 500 kts | 298° |
| 2026-05-07 13:57 | 70.90722 | 121.29529 | 35640 ft | 500 kts | 298° |
| 2026-05-07 13:58 | 70.94019 | 121.10812 | 35639 ft | 500 kts | 297° |
| 2026-05-07 13:58 | 70.97297 | 120.92031 | 35640 ft | 500 kts | 297° |
| 2026-05-07 13:59 | 71.00552 | 120.73212 | 35643 ft | 500 kts | 297° |
| 2026-05-07 13:59 | 71.03795 | 120.54290 | 35642 ft | 499 kts | 297° |
| 2026-05-07 14:00 | 71.07013 | 120.35362 | 35649 ft | 499 kts | 297° |
| 2026-05-07 14:00 | 71.10200 | 120.16341 | 35646 ft | 499 kts | 296° |
| 2026-05-07 14:01 | 71.13341 | 119.97245 | 35648 ft | 499 kts | 296° |
| 2026-05-07 14:01 | 71.16446 | 119.78200 | 35648 ft | 499 kts | 296° |
| 2026-05-07 14:02 | 71.19558 | 119.58966 | 35649 ft | 499 kts | 296° |
| 2026-05-07 14:02 | 71.22654 | 119.39681 | 35648 ft | 499 kts | 296° |
| 2026-05-07 14:03 | 71.25732 | 119.20322 | 35653 ft | 499 kts | 296° |
| 2026-05-07 14:03 | 71.28795 | 119.00931 | 35651 ft | 499 kts | 296° |
| 2026-05-07 14:04 | 71.31843 | 118.81450 | 35651 ft | 499 kts | 295° |
| 2026-05-07 14:04 | 71.34847 | 118.62060 | 35651 ft | 499 kts | 295° |
| 2026-05-07 14:05 | 71.37850 | 118.42485 | 35652 ft | 499 kts | 295° |
| 2026-05-07 14:05 | 71.40829 | 118.22873 | 35658 ft | 499 kts | 295° |
| 2026-05-07 14:06 | 71.43788 | 118.03195 | 35654 ft | 498 kts | 295° |
| 2026-05-07 14:06 | 71.46730 | 117.83437 | 35654 ft | 498 kts | 294° |
| 2026-05-07 14:07 | 71.49648 | 117.63660 | 35654 ft | 498 kts | 294° |
| 2026-05-07 14:07 | 71.52543 | 117.43824 | 35657 ft | 498 kts | 294° |
| 2026-05-07 14:08 | 71.55397 | 117.24060 | 35662 ft | 498 kts | 294° |
| 2026-05-07 14:08 | 71.58251 | 117.04102 | 35655 ft | 498 kts | 294° |
| 2026-05-07 14:09 | 71.61080 | 116.84117 | 35657 ft | 498 kts | 294° |
| 2026-05-07 14:09 | 71.63891 | 116.64056 | 35656 ft | 497 kts | 293° |
| 2026-05-07 14:10 | 71.66680 | 116.43938 | 35659 ft | 497 kts | 293° |
| 2026-05-07 14:10 | 71.69429 | 116.23901 | 35667 ft | 497 kts | 293° |
| 2026-05-07 14:11 | 71.72174 | 116.03686 | 35660 ft | 497 kts | 293° |
| 2026-05-07 14:11 | 71.74896 | 115.83415 | 35663 ft | 497 kts | 292° |
| 2026-05-07 14:12 | 71.77593 | 115.63120 | 35662 ft | 496 kts | 292° |
| 2026-05-07 14:12 | 71.80269 | 115.42768 | 35664 ft | 496 kts | 292° |
| 2026-05-07 14:13 | 71.82905 | 115.22495 | 35670 ft | 496 kts | 292° |
| 2026-05-07 14:13 | 71.85536 | 115.02038 | 35666 ft | 496 kts | 292° |
| 2026-05-07 14:14 | 71.88144 | 114.81531 | 35666 ft | 495 kts | 291° |
| 2026-05-07 14:14 | 71.90729 | 114.60985 | 35665 ft | 495 kts | 291° |
| 2026-05-07 14:15 | 71.93272 | 114.40542 | 35664 ft | 495 kts | 291° |
| 2026-05-07 14:15 | 71.95812 | 114.19925 | 35668 ft | 495 kts | 291° |
| 2026-05-07 14:16 | 71.98315 | 113.99231 | 35671 ft | 495 kts | 290° |
| 2026-05-07 14:16 | 72.00761 | 113.78448 | 35667 ft | 494 kts | 290° |
| 2026-05-07 14:17 | 72.03181 | 113.57646 | 35668 ft | 494 kts | 290° |
| 2026-05-07 14:17 | 72.05585 | 113.36790 | 35667 ft | 494 kts | 290° |
| 2026-05-07 14:18 | 72.07970 | 113.15879 | 35668 ft | 493 kts | 290° |
| 2026-05-07 14:18 | 72.10329 | 112.94936 | 35669 ft | 493 kts | 290° |
| 2026-05-07 14:19 | 72.12651 | 112.74075 | 35674 ft | 493 kts | 289° |
| 2026-05-07 14:19 | 72.14964 | 112.53035 | 35669 ft | 493 kts | 289° |
| 2026-05-07 14:20 | 72.17261 | 112.31920 | 35671 ft | 493 kts | 289° |
| 2026-05-07 14:20 | 72.19542 | 112.10737 | 35671 ft | 493 kts | 289° |
| 2026-05-07 14:21 | 72.21801 | 111.89701 | 35681 ft | 493 kts | 289° |
| 2026-05-07 14:21 | 72.24059 | 111.68453 | 35680 ft | 493 kts | 289° |
| 2026-05-07 14:22 | 72.26288 | 111.47189 | 35676 ft | 493 kts | 288° |
| 2026-05-07 14:22 | 72.28490 | 111.25889 | 35669 ft | 493 kts | 288° |
| 2026-05-07 14:23 | 72.30669 | 111.04542 | 35669 ft | 492 kts | 288° |
| 2026-05-07 14:23 | 72.32821 | 110.83183 | 35672 ft | 492 kts | 288° |
| 2026-05-07 14:24 | 72.34951 | 110.61761 | 35667 ft | 492 kts | 288° |
| 2026-05-07 14:24 | 72.37055 | 110.40325 | 35670 ft | 491 kts | 288° |
| 2026-05-07 14:25 | 72.39123 | 110.18967 | 35665 ft | 491 kts | 287° |
| 2026-05-07 14:25 | 72.41177 | 109.97465 | 35666 ft | 491 kts | 287° |
| 2026-05-07 14:26 | 72.43209 | 109.75899 | 35673 ft | 490 kts | 287° |
| 2026-05-07 14:26 | 72.45216 | 109.54301 | 35665 ft | 490 kts | 287° |
| 2026-05-07 14:27 | 72.46866 | 109.36329 | 35665 ft | 490 kts | 287° |
| 2026-05-07 14:27 | 72.48827 | 109.14678 | 35665 ft | 490 kts | 286° |
| 2026-05-07 14:28 | 72.50764 | 108.92985 | 35665 ft | 490 kts | 286° |
| 2026-05-07 14:28 | 72.52678 | 108.71251 | 35659 ft | 490 kts | 286° |
| 2026-05-07 14:29 | 72.54570 | 108.49434 | 35663 ft | 490 kts | 285° |
| 2026-05-07 14:29 | 72.56438 | 108.27595 | 35655 ft | 490 kts | 285° |
| 2026-05-07 14:30 | 72.58278 | 108.05737 | 35655 ft | 489 kts | 285° |
| 2026-05-07 14:30 | 72.60097 | 107.83817 | 35653 ft | 489 kts | 285° |
| 2026-05-07 14:31 | 72.61878 | 107.62027 | 35656 ft | 489 kts | 285° |
| 2026-05-07 14:31 | 72.63647 | 107.40035 | 35653 ft | 489 kts | 284° |
| 2026-05-07 14:32 | 72.65392 | 107.18004 | 35650 ft | 489 kts | 284° |
| 2026-05-07 14:32 | 72.67114 | 106.95923 | 35648 ft | 489 kts | 284° |
| 2026-05-07 14:33 | 72.68809 | 106.73821 | 35647 ft | 489 kts | 284° |
| 2026-05-07 14:33 | 72.70480 | 106.51692 | 35645 ft | 489 kts | 284° |
| 2026-05-07 14:34 | 72.72118 | 106.29624 | 35642 ft | 489 kts | 283° |
| 2026-05-07 14:34 | 72.73740 | 106.07411 | 35646 ft | 489 kts | 283° |
| 2026-05-07 14:35 | 72.75337 | 105.85165 | 35641 ft | 489 kts | 283° |
| 2026-05-07 14:35 | 72.76910 | 105.62866 | 35629 ft | 488 kts | 283° |
| 2026-05-07 14:36 | 72.78459 | 105.40521 | 35625 ft | 488 kts | 283° |
| 2026-05-07 14:36 | 72.79980 | 105.18199 | 35626 ft | 488 kts | 282° |
| 2026-05-07 14:37 | 72.81468 | 104.95947 | 35622 ft | 488 kts | 282° |
| 2026-05-07 14:37 | 72.83667 | 104.62323 | 35620 ft | 488 kts | 282° |
| 2026-05-07 14:38 | 72.85102 | 104.39846 | 35618 ft | 487 kts | 282° |
| 2026-05-07 14:38 | 72.86510 | 104.17382 | 35619 ft | 487 kts | 281° |
| 2026-05-07 14:39 | 72.87886 | 103.94997 | 35616 ft | 487 kts | 281° |
| 2026-05-07 14:39 | 72.89245 | 103.72450 | 35618 ft | 487 kts | 281° |
| 2026-05-07 14:40 | 72.90579 | 103.49860 | 35612 ft | 487 kts | 281° |
| 2026-05-07 14:40 | 72.91887 | 103.27260 | 35613 ft | 487 kts | 281° |
| 2026-05-07 14:41 | 72.93172 | 103.04582 | 35605 ft | 487 kts | 280° |
| 2026-05-07 14:41 | 72.94421 | 102.82074 | 35603 ft | 487 kts | 280° |
| 2026-05-07 14:42 | 72.95654 | 102.59383 | 35605 ft | 487 kts | 280° |
| 2026-05-07 14:42 | 72.96862 | 102.36631 | 35600 ft | 487 kts | 279° |
| 2026-05-07 14:43 | 72.98044 | 102.13876 | 35602 ft | 487 kts | 279° |
| 2026-05-07 14:43 | 72.99204 | 101.91022 | 35601 ft | 487 kts | 279° |
| 2026-05-07 14:44 | 73.00327 | 101.68362 | 35602 ft | 487 kts | 279° |
| 2026-05-07 14:44 | 73.01432 | 101.45546 | 35598 ft | 487 kts | 279° |
| 2026-05-07 14:45 | 73.02514 | 101.22628 | 35597 ft | 487 kts | 278° |
| 2026-05-07 14:45 | 73.03568 | 100.99752 | 35595 ft | 487 kts | 278° |
| 2026-05-07 14:46 | 73.04596 | 100.76843 | 35600 ft | 487 kts | 278° |
| 2026-05-07 14:46 | 73.05600 | 100.53874 | 35590 ft | 487 kts | 278° |
| 2026-05-07 14:47 | 73.06572 | 100.31034 | 35592 ft | 487 kts | 278° |
| 2026-05-07 14:47 | 73.07524 | 100.08048 | 35594 ft | 487 kts | 277° |
| 2026-05-07 14:48 | 73.08451 | 99.85008 | 35588 ft | 487 kts | 277° |
| 2026-05-07 14:48 | 73.09353 | 99.61925 | 35587 ft | 487 kts | 277° |
| 2026-05-07 14:49 | 73.10229 | 99.38836 | 35586 ft | 487 kts | 277° |
| 2026-05-07 14:49 | 73.11079 | 99.15700 | 35588 ft | 487 kts | 277° |
| 2026-05-07 14:50 | 73.11902 | 98.92571 | 35579 ft | 487 kts | 276° |
| 2026-05-07 14:50 | 73.12700 | 98.69412 | 35583 ft | 487 kts | 276° |
| 2026-05-07 14:51 | 73.13467 | 98.46381 | 35576 ft | 487 kts | 276° |
| 2026-05-07 14:51 | 73.14212 | 98.23174 | 35576 ft | 487 kts | 276° |
| 2026-05-07 14:52 | 73.14932 | 97.99966 | 35573 ft | 487 kts | 275° |
| 2026-05-07 14:52 | 73.15627 | 97.76676 | 35569 ft | 487 kts | 275° |
| 2026-05-07 14:53 | 73.16294 | 97.53437 | 35556 ft | 487 kts | 275° |
| 2026-05-07 14:53 | 73.16935 | 97.30189 | 35568 ft | 486 kts | 275° |
| 2026-05-07 14:54 | 73.17542 | 97.07142 | 35561 ft | 485 kts | 275° |
| 2026-05-07 14:54 | 73.18128 | 96.83982 | 35562 ft | 484 kts | 274° |
| 2026-05-07 14:55 | 73.18686 | 96.60851 | 35561 ft | 483 kts | 274° |
| 2026-05-07 14:55 | 73.19219 | 96.37705 | 35557 ft | 483 kts | 274° |
| 2026-05-07 14:56 | 73.19725 | 96.14566 | 35559 ft | 482 kts | 274° |
| 2026-05-07 14:56 | 73.20205 | 95.91438 | 35555 ft | 482 kts | 273° |
| 2026-05-07 14:57 | 73.20658 | 95.68312 | 35551 ft | 482 kts | 273° |
| 2026-05-07 14:57 | 73.21086 | 95.45193 | 35547 ft | 482 kts | 273° |
| 2026-05-07 14:58 | 73.21487 | 95.22070 | 35547 ft | 482 kts | 273° |
| 2026-05-07 14:58 | 73.21861 | 94.99045 | 35543 ft | 482 kts | 272° |
| 2026-05-07 14:59 | 73.22214 | 94.75731 | 35538 ft | 482 kts | 272° |
| 2026-05-07 14:59 | 73.22538 | 94.52556 | 35536 ft | 482 kts | 272° |
| 2026-05-07 15:00 | 73.22835 | 94.29493 | 35538 ft | 482 kts | 272° |
| 2026-05-07 15:00 | 73.23108 | 94.06279 | 35538 ft | 482 kts | 271° |
| 2026-05-07 15:01 | 73.23355 | 93.83066 | 35524 ft | 482 kts | 271° |
| 2026-05-07 15:01 | 73.23575 | 93.59823 | 35524 ft | 483 kts | 271° |
| 2026-05-07 15:02 | 73.23771 | 93.36564 | 35524 ft | 483 kts | 271° |
| 2026-05-07 15:02 | 73.23940 | 93.13323 | 35523 ft | 483 kts | 270° |
| 2026-05-07 15:03 | 73.24083 | 92.90057 | 35516 ft | 483 kts | 270° |
| 2026-05-07 15:03 | 73.24199 | 92.66802 | 35515 ft | 483 kts | 270° |
| 2026-05-07 15:04 | 73.24289 | 92.43671 | 35520 ft | 483 kts | 270° |
| 2026-05-07 15:04 | 73.24354 | 92.20360 | 35514 ft | 484 kts | 270° |
| 2026-05-07 15:05 | 73.24393 | 91.96998 | 35499 ft | 484 kts | 269° |
| 2026-05-07 15:05 | 73.24406 | 91.73631 | 35509 ft | 484 kts | 269° |
| 2026-05-07 15:06 | 73.24392 | 91.50430 | 35505 ft | 484 kts | 269° |
| 2026-05-07 15:06 | 73.24352 | 91.27027 | 35502 ft | 485 kts | 269° |
| 2026-05-07 15:07 | 73.24286 | 91.03663 | 35504 ft | 485 kts | 268° |
| 2026-05-07 15:07 | 73.24193 | 90.80273 | 35492 ft | 486 kts | 268° |
| 2026-05-07 15:08 | 73.24075 | 90.56972 | 35502 ft | 486 kts | 268° |
| 2026-05-07 15:08 | 73.23930 | 90.33558 | 35506 ft | 486 kts | 268° |
| 2026-05-07 15:09 | 73.23758 | 90.10139 | 35495 ft | 486 kts | 268° |
| 2026-05-07 15:09 | 73.23560 | 89.86728 | 35504 ft | 486 kts | 267° |
| 2026-05-07 15:10 | 73.23335 | 89.63303 | 35493 ft | 487 kts | 267° |
| 2026-05-07 15:10 | 73.23087 | 89.39854 | 35491 ft | 487 kts | 267° |
| 2026-05-07 15:11 | 73.22808 | 89.16590 | 35475 ft | 487 kts | 266° |
| 2026-05-07 15:11 | 73.22123 | 88.93309 | 35489 ft | 486 kts | 263° |
| 2026-05-07 15:12 | 73.21314 | 88.70095 | 35477 ft | 486 kts | 262° |
| 2026-05-07 15:12 | 73.20489 | 88.46870 | 35470 ft | 486 kts | 262° |
| 2026-05-07 15:13 | 73.19653 | 88.23651 | 35477 ft | 486 kts | 262° |
| 2026-05-07 15:13 | 73.18797 | 88.00419 | 35472 ft | 486 kts | 262° |
| 2026-05-07 15:14 | 73.18067 | 87.81162 | 35479 ft | 486 kts | 262° |
| 2026-05-07 15:14 | 73.17163 | 87.58001 | 35476 ft | 486 kts | 262° |
| 2026-05-07 15:15 | 73.16237 | 87.34969 | 35490 ft | 487 kts | 261° |
| 2026-05-07 15:15 | 73.15281 | 87.11850 | 35481 ft | 487 kts | 261° |
| 2026-05-07 15:16 | 73.14298 | 86.88724 | 35480 ft | 488 kts | 261° |
| 2026-05-07 15:16 | 73.13286 | 86.65568 | 35482 ft | 488 kts | 261° |
| 2026-05-07 15:17 | 73.12249 | 86.42438 | 35480 ft | 488 kts | 261° |
| 2026-05-07 15:17 | 73.11186 | 86.19355 | 35488 ft | 488 kts | 260° |
| 2026-05-07 15:18 | 73.10103 | 85.96436 | 35487 ft | 489 kts | 260° |
| 2026-05-07 15:18 | 73.08987 | 85.73371 | 35485 ft | 489 kts | 260° |
| 2026-05-07 15:19 | 73.07844 | 85.50320 | 35484 ft | 489 kts | 259° |
| 2026-05-07 15:19 | 73.06676 | 85.27293 | 35482 ft | 490 kts | 259° |
| 2026-05-07 15:20 | 73.05479 | 85.04256 | 35479 ft | 490 kts | 259° |
| 2026-05-07 15:20 | 73.04256 | 84.81258 | 35489 ft | 491 kts | 259° |
| 2026-05-07 15:21 | 73.03005 | 84.58233 | 35485 ft | 492 kts | 259° |
| 2026-05-07 15:21 | 73.01725 | 84.35187 | 35492 ft | 493 kts | 258° |
| 2026-05-07 15:22 | 73.00427 | 84.12305 | 35477 ft | 493 kts | 258° |
| 2026-05-07 15:22 | 72.99093 | 83.89297 | 35477 ft | 494 kts | 258° |
| 2026-05-07 15:23 | 72.97732 | 83.66289 | 35488 ft | 494 kts | 258° |
| 2026-05-07 15:23 | 72.96344 | 83.43292 | 35478 ft | 495 kts | 258° |
| 2026-05-07 15:24 | 72.94929 | 83.20330 | 35482 ft | 495 kts | 257° |
| 2026-05-07 15:24 | 72.93486 | 82.97361 | 35483 ft | 495 kts | 257° |
| 2026-05-07 15:25 | 72.92019 | 82.74452 | 35475 ft | 496 kts | 257° |
| 2026-05-07 15:25 | 72.90524 | 82.51552 | 35485 ft | 496 kts | 257° |
| 2026-05-07 15:26 | 72.89003 | 82.28696 | 35477 ft | 496 kts | 257° |
| 2026-05-07 15:26 | 72.87468 | 82.06034 | 35473 ft | 495 kts | 256° |
| 2026-05-07 15:27 | 72.85899 | 81.83298 | 35468 ft | 495 kts | 256° |
| 2026-05-07 15:27 | 72.84304 | 81.60593 | 35472 ft | 495 kts | 256° |
| 2026-05-07 15:28 | 72.82682 | 81.37902 | 35472 ft | 494 kts | 256° |
| 2026-05-07 15:28 | 72.81040 | 81.15319 | 35477 ft | 494 kts | 256° |
| 2026-05-07 15:29 | 72.79385 | 80.92941 | 35482 ft | 494 kts | 255° |
| 2026-05-07 15:29 | 72.77691 | 80.70424 | 35482 ft | 494 kts | 255° |
| 2026-05-07 15:30 | 72.75975 | 80.47983 | 35487 ft | 494 kts | 255° |
| 2026-05-07 15:30 | 72.74233 | 80.25566 | 35489 ft | 494 kts | 255° |
| 2026-05-07 15:31 | 72.72476 | 80.03324 | 35497 ft | 494 kts | 255° |
| 2026-05-07 15:31 | 72.70683 | 79.80974 | 35486 ft | 496 kts | 254° |
| 2026-05-07 15:32 | 72.68858 | 79.58592 | 35499 ft | 496 kts | 254° |
| 2026-05-07 15:32 | 72.67009 | 79.36263 | 35459 ft | 497 kts | 254° |
| 2026-05-07 15:33 | 72.65135 | 79.13969 | 35478 ft | 496 kts | 253° |
| 2026-05-07 15:33 | 72.63250 | 78.91893 | 35492 ft | 495 kts | 253° |
| 2026-05-07 15:34 | 72.61330 | 78.69723 | 35484 ft | 496 kts | 253° |
| 2026-05-07 15:34 | 72.59383 | 78.47592 | 35484 ft | 496 kts | 253° |
| 2026-05-07 15:35 | 72.57413 | 78.25506 | 35487 ft | 497 kts | 253° |
| 2026-05-07 15:35 | 72.55416 | 78.03445 | 35492 ft | 497 kts | 253° |
| 2026-05-07 15:36 | 72.53404 | 77.81539 | 35490 ft | 497 kts | 252° |
| 2026-05-07 15:36 | 72.51357 | 77.59560 | 35503 ft | 497 kts | 252° |
| 2026-05-07 15:37 | 72.49286 | 77.37624 | 35489 ft | 497 kts | 252° |
| 2026-05-07 15:37 | 72.47193 | 77.15765 | 35494 ft | 497 kts | 252° |
| 2026-05-07 15:38 | 72.45073 | 76.93930 | 35494 ft | 497 kts | 252° |
| 2026-05-07 15:38 | 72.42931 | 76.72155 | 35497 ft | 497 kts | 252° |
| 2026-05-07 15:39 | 72.40769 | 76.50472 | 35497 ft | 497 kts | 251° |
| 2026-05-07 15:39 | 72.38596 | 76.28965 | 35499 ft | 497 kts | 251° |
| 2026-05-07 15:40 | 72.36386 | 76.07378 | 35503 ft | 496 kts | 251° |
| 2026-05-07 15:40 | 72.34153 | 75.85837 | 35495 ft | 497 kts | 251° |
| 2026-05-07 15:41 | 72.31899 | 75.64357 | 35503 ft | 496 kts | 251° |
| 2026-05-07 15:41 | 72.29620 | 75.42900 | 35508 ft | 497 kts | 251° |
| 2026-05-07 15:42 | 72.27304 | 75.21474 | 35507 ft | 498 kts | 250° |
| 2026-05-07 15:42 | 72.24960 | 75.00074 | 35506 ft | 499 kts | 250° |
| 2026-05-07 15:43 | 72.22597 | 74.78723 | 35505 ft | 499 kts | 250° |
| 2026-05-07 15:43 | 72.20226 | 74.57544 | 35503 ft | 499 kts | 250° |
| 2026-05-07 15:44 | 72.17812 | 74.36241 | 35499 ft | 500 kts | 250° |
| 2026-05-07 15:44 | 72.15376 | 74.15003 | 35503 ft | 500 kts | 250° |